createdAt,value
2024-01-26T00:18:19.260Z,90.4
2024-01-26T00:38:19.643Z,90.9
2024-01-26T00:58:20.117Z,92.6
2024-01-26T01:54:42.992Z,93.4
2024-01-26T01:54:45.668Z,93.9
2024-01-26T02:01:10.873Z,94.3
2024-01-26T02:18:19.861Z,94.6
2024-01-26T02:38:19.751Z,94.7
2024-01-26T02:58:19.650Z,94.9
2024-01-26T03:18:20.010Z,95
2024-01-26T03:38:19.747Z,95.2
2024-01-26T03:58:19.777Z,95.4
2024-01-26T04:18:20.035Z,95.5
2024-01-26T04:38:19.921Z,95.7
2024-01-26T04:58:19.925Z,95.8
2024-01-26T05:18:20.061Z,95.9
2024-01-26T05:38:19.953Z,96
2024-01-26T05:58:20.008Z,96
2024-01-26T06:18:20.205Z,96.2
2024-01-26T06:58:20.206Z,96.4
2024-01-26T07:18:20.335Z,96.4
2024-01-26T07:38:20.416Z,96.5
2024-01-26T07:58:20.311Z,96.6
2024-01-26T08:18:20.434Z,96.7
2024-01-26T08:38:20.383Z,96.7
2024-01-26T08:58:20.463Z,96.8
2024-01-26T09:18:20.877Z,96.9
2024-01-26T09:38:20.568Z,96.8
2024-01-26T09:58:20.919Z,96.9
2024-01-26T10:18:20.722Z,96.9
2024-01-26T10:38:20.922Z,96.8
2024-01-26T10:58:20.697Z,96.7
2024-01-26T11:18:20.834Z,96.4
2024-01-26T11:38:20.826Z,96.2
2024-01-26T11:58:20.764Z,96.2
2024-01-26T12:18:20.937Z,96.1
2024-01-26T12:38:20.820Z,96.2
2024-01-26T12:58:20.970Z,96.2
2024-01-26T13:18:26.504Z,96.1
2024-01-26T13:38:20.932Z,95.7
2024-01-26T13:58:21.123Z,95.5
2024-01-26T14:18:21.206Z,95.3
2024-01-26T14:38:21.144Z,95.2
2024-01-26T14:58:21.138Z,95.2
2024-01-26T15:18:21.301Z,95.4
2024-01-26T15:38:21.348Z,92.2
2024-01-26T15:58:21.262Z,87.7
2024-01-26T16:18:21.854Z,86.1
2024-01-26T16:38:21.349Z,83.8
2024-01-26T16:58:21.570Z,81
2024-01-26T17:18:21.514Z,79.3
2024-01-26T17:38:21.504Z,81.8
2024-01-26T17:58:21.621Z,80.7
2024-01-26T18:18:21.600Z,79.3
2024-01-26T18:38:22.328Z,78.2
2024-01-26T18:58:21.646Z,77.9
2024-01-26T19:18:21.718Z,76.4
2024-01-26T19:38:21.815Z,77.8
2024-01-26T19:58:21.788Z,79.2
2024-01-26T20:18:21.871Z,80.7
2024-01-26T20:38:21.873Z,81.4
2024-01-26T20:58:22.034Z,81.1
2024-01-26T21:18:22.143Z,79.7
2024-01-26T21:38:23.671Z,80
2024-01-26T21:58:22.060Z,80.7
2024-01-26T22:18:35.713Z,82.6
2024-01-26T22:38:22.164Z,84.5
2024-01-26T22:58:22.228Z,86.9
2024-01-26T23:18:22.316Z,87.5
2024-01-26T23:38:22.929Z,86.1
2024-01-26T23:58:22.323Z,85.9
